Time;durP1;ratioP1;P1;durP2;ratioP2;P2;SDS_P1;SDS_P2;PMS_P1;PMS_P2;Temp;Humidity;BMP_temperature;BMP_pressure;BME280_temperature;BME280_humidity;BME280_pressure;Samples;Min_cycle;Max_cycle;Signal;HPM_P1;HPM_P2
2022/09/05 00:03:57;;;;;;;13.73;9.23;;;;;;;;;;8068493;29;20055;-84
2022/09/05 00:08:24;;;;;;;15.35;9.60;;;;;;;;;;8070090;29;20490;-86
2022/09/05 00:12:47;;;;;;;13.43;9.02;;;;;;;;;;8069721;29;20097;-85
2022/09/05 00:17:20;;;;;;;17.50;9.55;;;;;;;;;;8059098;29;20123;-86
2022/09/05 00:21:57;;;;;;;14.50;9.18;;;;;;;;;;8113413;29;20059;-86
2022/09/05 00:26:29;;;;;;;15.13;8.90;;;;;;;;;;8119414;29;20151;-85
2022/09/05 00:31:11;;;;;;;15.52;9.23;;;;;;;;;;8134281;29;20054;-85
2022/09/05 00:35:56;;;;;;;16.53;9.50;;;;;;;;;;8121830;29;20046;-85
2022/09/05 00:40:24;;;;;;;14.45;9.60;;;;;;;;;;8116408;29;20462;-86
2022/09/05 00:44:52;;;;;;;16.13;9.75;;;;;;;;;;8112696;29;20484;-86
2022/09/05 00:49:21;;;;;;;15.82;9.73;;;;;;;;;;8111972;29;20069;-84
2022/09/05 00:53:56;;;;;;;13.15;8.27;;;;;;;;;;8108035;29;20063;-85
2022/09/05 00:58:45;;;;;;;12.30;8.48;;;;;;;;;;8118140;29;20091;-86
2022/09/05 01:03:37;;;;;;;11.80;7.82;;;;;;;;;;8115347;29;20111;-86
2022/09/05 01:08:16;;;;;;;12.10;8.02;;;;;;;;;;8094641;29;20059;-85
2022/09/05 01:12:54;;;;;;;10.77;8.18;;;;;;;;;;8120333;29;20059;-86
2022/09/05 01:17:35;;;;;;;12.02;7.55;;;;;;;;;;8113748;29;20157;-84
2022/09/05 01:22:17;;;;;;;12.57;7.82;;;;;;;;;;8113033;29;20130;-86
2022/09/05 01:27:07;;;;;;;12.70;8.35;;;;;;;;;;8118510;29;20095;-86
2022/09/05 01:31:40;;;;;;;12.70;7.97;;;;;;;;;;8120535;29;20103;-85
2022/09/05 01:36:23;;;;;;;11.73;7.68;;;;;;;;;;8128046;29;20060;-85
2022/09/05 01:40:53;;;;;;;13.98;8.20;;;;;;;;;;8122099;29;20479;-85
2022/09/05 01:45:20;;;;;;;13.23;8.18;;;;;;;;;;8116725;29;20789;-85
2022/09/05 01:49:55;;;;;;;11.73;8.23;;;;;;;;;;8113503;29;20071;-85
2022/09/05 01:54:23;;;;;;;13.90;8.13;;;;;;;;;;8121509;29;20520;-85
2022/09/05 01:58:51;;;;;;;11.90;8.38;;;;;;;;;;8127770;29;20091;-84
2022/09/05 02:03:21;;;;;;;14.80;8.85;;;;;;;;;;8127545;29;20059;-85
2022/09/05 02:08:03;;;;;;;13.60;8.38;;;;;;;;;;8118819;29;20079;-86
2022/09/05 02:12:30;;;;;;;12.68;8.43;;;;;;;;;;8122113;29;20060;-85
2022/09/05 02:16:54;;;;;;;11.73;7.47;;;;;;;;;;8120924;29;20054;-86
2022/09/05 02:21:23;;;;;;;14.55;8.68;;;;;;;;;;8114521;29;20087;-84
2022/09/05 02:25:49;;;;;;;12.93;8.38;;;;;;;;;;8129769;29;20040;-85
2022/09/05 02:30:13;;;;;;;17.65;9.18;;;;;;;;;;8123790;29;20067;-85
2022/09/05 02:34:42;;;;;;;15.95;8.55;;;;;;;;;;8120591;29;20105;-85
2022/09/05 02:39:15;;;;;;;15.02;9.27;;;;;;;;;;8120384;29;20115;-85
2022/09/05 02:43:41;;;;;;;18.67;10.05;;;;;;;;;;8114917;29;20060;-86
2022/09/05 02:48:15;;;;;;;20.95;11.05;;;;;;;;;;8112110;29;20113;-85
2022/09/05 02:52:38;;;;;;;23.50;12.48;;;;;;;;;;8120014;29;20095;-85
2022/09/05 02:57:33;;;;;;;30.27;14.70;;;;;;;;;;8120057;29;20101;-86
2022/09/05 03:02:02;;;;;;;26.50;12.73;;;;;;;;;;8112688;29;20087;-85
2022/09/05 03:06:32;;;;;;;28.90;11.98;;;;;;;;;;8114189;29;20412;-84
2022/09/05 03:11:27;;;;;;;30.83;15.07;;;;;;;;;;8112642;29;20103;-85
2022/09/05 03:16:45;;;;;;;30.05;16.35;;;;;;;;;;8114657;29;20087;-84
2022/09/05 03:21:50;;;;;;;37.58;21.23;;;;;;;;;;8116806;29;20060;-84
2022/09/05 03:26:50;;;;;;;35.80;20.42;;;;;;;;;;8115488;29;20054;-84
2022/09/05 03:31:38;;;;;;;27.88;15.85;;;;;;;;;;8119140;29;20059;-84
2022/09/05 03:36:47;;;;;;;27.85;15.55;;;;;;;;;;8117472;29;20477;-84
2022/09/05 03:41:18;;;;;;;29.05;15.23;;;;;;;;;;8113360;29;20131;-84
2022/09/05 03:46:00;;;;;;;25.58;12.25;;;;;;;;;;8112065;29;20096;-85
2022/09/05 03:50:27;;;;;;;28.40;11.97;;;;;;;;;;8115018;29;20156;-84
2022/09/05 03:55:28;;;;;;;17.48;10.35;;;;;;;;;;8118243;29;20097;-85
2022/09/05 04:00:09;;;;;;;16.25;9.15;;;;;;;;;;8115746;29;20454;-85
2022/09/05 04:04:34;;;;;;;14.80;8.88;;;;;;;;;;8115706;29;20100;-85
2022/09/05 04:09:04;;;;;;;11.63;7.60;;;;;;;;;;8111005;29;20055;-84
2022/09/05 04:13:31;;;;;;;12.60;7.78;;;;;;;;;;8123308;29;20078;-85
2022/09/05 04:17:57;;;;;;;13.25;8.27;;;;;;;;;;8111507;29;20144;-85
2022/09/05 04:22:22;;;;;;;15.57;8.77;;;;;;;;;;8108464;29;20067;-84
2022/09/05 04:27:16;;;;;;;14.52;8.38;;;;;;;;;;8120717;29;20059;-84
2022/09/05 04:31:49;;;;;;;12.48;7.93;;;;;;;;;;8116297;29;20052;-84
2022/09/05 04:36:18;;;;;;;14.77;9.10;;;;;;;;;;8122458;29;20113;-84
2022/09/05 04:40:43;;;;;;;10.93;6.70;;;;;;;;;;8121510;29;20087;-86
2022/09/05 04:45:11;;;;;;;10.05;6.72;;;;;;;;;;8116170;29;20067;-84
2022/09/05 04:49:37;;;;;;;12.18;7.60;;;;;;;;;;8119747;29;20579;-87
2022/09/05 04:54:16;;;;;;;13.98;7.72;;;;;;;;;;8114997;29;20056;-86
2022/09/05 04:58:41;;;;;;;10.80;6.95;;;;;;;;;;8119462;29;20067;-84
2022/09/05 05:03:04;;;;;;;14.32;7.22;;;;;;;;;;8115183;29;20108;-84
2022/09/05 05:07:34;;;;;;;20.73;7.90;;;;;;;;;;8111217;29;20091;-86
2022/09/05 05:11:57;;;;;;;15.75;10.27;;;;;;;;;;8114373;29;20059;-86
2022/09/05 05:16:21;;;;;;;17.73;10.95;;;;;;;;;;8115391;29;20564;-85
2022/09/05 05:20:51;;;;;;;16.08;9.52;;;;;;;;;;8107190;29;20054;-86
2022/09/05 05:25:13;;;;;;;13.60;8.82;;;;;;;;;;8119112;29;20481;-86
2022/09/05 05:29:43;;;;;;;12.73;6.82;;;;;;;;;;8115055;29;20051;-87
2022/09/05 05:34:13;;;;;;;10.88;7.35;;;;;;;;;;8113196;29;20067;-85
2022/09/05 05:38:43;;;;;;;14.77;7.20;;;;;;;;;;8135719;29;20086;-86
2022/09/05 05:43:37;;;;;;;15.18;7.03;;;;;;;;;;8142101;29;20069;-88
2022/09/05 05:48:04;;;;;;;12.32;6.00;;;;;;;;;;8146289;29;20075;-88
2022/09/05 05:52:57;;;;;;;9.77;5.13;;;;;;;;;;8147395;29;20080;-87
2022/09/05 05:57:53;;;;;;;10.32;4.32;;;;;;;;;;8145385;29;20436;-87
2022/09/05 06:03:02;;;;;;;10.25;4.32;;;;;;;;;;8118700;29;20109;-87
2022/09/05 06:07:40;;;;;;;9.05;3.80;;;;;;;;;;8083624;29;20063;-87
2022/09/05 06:12:38;;;;;;;5.22;2.67;;;;;;;;;;8155224;29;20100;-86
2022/09/05 06:17:33;;;;;;;4.93;2.38;;;;;;;;;;8135321;29;20055;-87
2022/09/05 06:22:30;;;;;;;3.67;1.90;;;;;;;;;;8137629;29;20059;-85
2022/09/05 06:27:31;;;;;;;4.57;2.13;;;;;;;;;;8150867;29;20058;-85
2022/09/05 06:32:00;;;;;;;;;;;;;;;;;;8148217;29;20663;-86
2022/09/05 06:36:36;;;;;;;5.72;2.70;;;;;;;;;;8137664;29;19979;-89
2022/09/05 06:41:12;;;;;;;3.50;2.40;;;;;;;;;;8154348;29;20055;-88
2022/09/05 06:46:02;;;;;;;2.70;1.90;;;;;;;;;;8147252;29;20551;-89
2022/09/05 06:50:30;;;;;;;5.85;1.70;;;;;;;;;;8144228;29;20070;-88
2022/09/05 06:55:19;;;;;;;2.45;1.70;;;;;;;;;;8147650;29;20119;-88
2022/09/05 07:00:19;;;;;;;3.28;1.75;;;;;;;;;;8145621;29;20090;-88
2022/09/05 07:04:44;;;;;;;4.10;1.80;;;;;;;;;;8165210;29;20089;-88
2022/09/05 07:09:14;;;;;;;5.80;1.90;;;;;;;;;;8150753;29;20059;-87
2022/09/05 07:13:39;;;;;;;8.75;5.55;;;;;;;;;;8165202;29;20078;-88
2022/09/05 07:18:07;;;;;;;3.85;1.80;;;;;;;;;;8141359;29;20140;-87
2022/09/05 07:22:35;;;;;;;3.85;1.80;;;;;;;;;;8152246;29;20107;-88
2022/09/05 07:26:59;;;;;;;4.43;1.80;;;;;;;;;;8150483;29;20067;-88
2022/09/05 07:31:25;;;;;;;4.15;1.80;;;;;;;;;;8144121;29;20591;-87
2022/09/05 07:35:45;;;;;;;2.42;1.55;;;;;;;;;;8143877;29;20059;-87
2022/09/05 07:40:13;;;;;;;3.78;1.50;;;;;;;;;;8142140;29;20128;-87
2022/09/05 07:44:38;;;;;;;2.17;1.40;;;;;;;;;;8146160;29;20099;-88
2022/09/05 07:49:02;;;;;;;1.77;1.27;;;;;;;;;;8152373;29;20059;-88
2022/09/05 07:53:25;;;;;;;2.65;1.50;;;;;;;;;;8156224;29;20070;-88
2022/09/05 07:57:47;;;;;;;5.45;2.72;;;;;;;;;;8145614;29;20435;-88
2022/09/05 08:02:11;;;;;;;5.55;2.33;;;;;;;;;;8149718;29;20055;-87
2022/09/05 08:06:32;;;;;;;3.35;2.47;;;;;;;;;;8147545;29;20477;-87
2022/09/05 08:10:54;;;;;;;;;;;;;;;;;;8150134;29;20101;-88
2022/09/05 08:15:21;;;;;;;2.88;1.42;;;;;;;;;;8151450;29;20299;-87
2022/09/05 08:20:24;;;;;;;3.08;1.50;;;;;;;;;;8145062;29;20477;-88
2022/09/05 08:24:55;;;;;;;2.45;1.40;;;;;;;;;;8148526;29;20083;-88
2022/09/05 08:29:29;;;;;;;4.65;2.00;;;;;;;;;;8151289;29;20055;-88
2022/09/05 08:33:56;;;;;;;3.63;1.70;;;;;;;;;;8146457;29;20124;-88
2022/09/05 08:38:17;;;;;;;4.32;1.58;;;;;;;;;;8153043;29;20520;-89
2022/09/05 08:42:45;;;;;;;3.60;1.67;;;;;;;;;;8141978;29;20070;-88
2022/09/05 08:47:20;;;;;;;4.15;1.40;;;;;;;;;;8150945;29;20058;-88
2022/09/05 08:51:52;;;;;;;3.05;1.50;;;;;;;;;;8153271;29;20106;-88
2022/09/05 08:56:17;;;;;;;2.28;1.30;;;;;;;;;;8137899;29;20108;-87
2022/09/05 09:00:45;;;;;;;3.85;1.88;;;;;;;;;;8142837;29;20067;-88
2022/09/05 09:05:15;;;;;;;3.80;1.83;;;;;;;;;;8142710;29;20143;-87
2022/09/05 09:09:44;;;;;;;3.28;1.80;;;;;;;;;;8139750;29;20828;-87
2022/09/05 09:14:35;;;;;;;3.05;1.85;;;;;;;;;;8143195;29;20095;-88
2022/09/05 09:19:11;;;;;;;4.18;1.55;;;;;;;;;;8138899;29;20061;-88
2022/09/05 09:23:45;;;;;;;3.25;1.88;;;;;;;;;;8145348;29;20119;-87
2022/09/05 09:28:47;;;;;;;2.75;1.90;;;;;;;;;;8137060;29;20086;-88
2022/09/05 09:33:18;;;;;;;4.57;1.80;;;;;;;;;;8151005;29;20110;-86
2022/09/05 09:38:06;;;;;;;;;;;;;;;;;;8134198;29;20047;-87
2022/09/05 09:42:39;;;;;;;1.95;1.30;;;;;;;;;;8115326;29;20015;-86
2022/09/05 09:47:08;;;;;;;3.92;1.70;;;;;;;;;;8104300;29;20056;-87
2022/09/05 09:51:48;;;;;;;2.45;1.50;;;;;;;;;;8103867;29;20524;-87
2022/09/05 09:56:35;;;;;;;2.60;1.48;;;;;;;;;;8114257;29;20108;-87
2022/09/05 10:01:09;;;;;;;7.15;1.60;;;;;;;;;;8127514;29;20075;-87
2022/09/05 10:05:55;;;;;;;3.45;1.40;;;;;;;;;;8129396;29;20846;-88
2022/09/05 10:10:40;;;;;;;3.05;1.52;;;;;;;;;;8114598;29;20119;-87
2022/09/05 10:15:08;;;;;;;1.77;1.27;;;;;;;;;;8108437;29;20371;-87
2022/09/05 10:19:49;;;;;;;2.33;1.50;;;;;;;;;;8108534;29;20100;-87
2022/09/05 10:24:30;;;;;;;;;;;;;;;;;;8114046;29;20083;-87
2022/09/05 10:29:05;;;;;;;3.17;1.50;;;;;;;;;;8113641;29;19933;-87
2022/09/05 10:33:44;;;;;;;2.03;1.45;;;;;;;;;;8114055;29;20316;-88
2022/09/05 10:38:11;;;;;;;1.30;1.20;;;;;;;;;;8130392;29;20062;-87
2022/09/05 10:42:38;;;;;;;2.65;1.50;;;;;;;;;;8148214;29;20059;-87
2022/09/05 10:47:13;;;;;;;1.95;1.20;;;;;;;;;;8150249;29;20107;-87
2022/09/05 10:51:43;;;;;;;2.75;1.10;;;;;;;;;;8151668;29;20067;-87
2022/09/05 10:56:11;;;;;;;3.30;1.40;;;;;;;;;;8140303;29;20063;-87
2022/09/05 11:00:55;;;;;;;2.67;1.10;;;;;;;;;;8143772;29;20051;-86
2022/09/05 11:05:23;;;;;;;2.53;1.42;;;;;;;;;;8144902;29;20050;-88
2022/09/05 11:09:58;;;;;;;1.45;1.30;;;;;;;;;;8142795;29;20062;-87
2022/09/05 11:14:40;;;;;;;3.15;1.60;;;;;;;;;;8142042;29;20110;-87
2022/09/05 11:19:05;;;;;;;6.38;1.92;;;;;;;;;;8139137;29;20102;-88
2022/09/05 11:23:33;;;;;;;1.35;1.08;;;;;;;;;;8150195;29;20094;-87
2022/09/05 11:27:57;;;;;;;1.70;1.48;;;;;;;;;;8156284;29;20068;-87
2022/09/05 11:32:58;;;;;;;6.55;2.90;;;;;;;;;;8148779;29;20143;-88
2022/09/05 11:37:35;;;;;;;6.63;2.80;;;;;;;;;;8154066;29;20099;-87
2022/09/05 11:42:26;;;;;;;1.27;1.00;;;;;;;;;;8137844;29;20051;-88
2022/09/05 11:47:02;;;;;;;4.28;1.50;;;;;;;;;;8148928;29;20051;-87
2022/09/05 11:51:58;;;;;;;1.63;0.85;;;;;;;;;;8134959;29;20095;-87
2022/09/05 11:56:41;;;;;;;0.80;0.80;;;;;;;;;;8139633;29;20050;-88
2022/09/05 12:01:09;;;;;;;1.83;0.98;;;;;;;;;;8149399;29;20084;-87
2022/09/05 12:05:57;;;;;;;1.65;0.90;;;;;;;;;;8155493;29;20432;-88
2022/09/05 12:10:29;;;;;;;1.10;0.80;;;;;;;;;;8139779;29;20111;-88
2022/09/05 12:15:08;;;;;;;0.82;0.80;;;;;;;;;;8142472;29;20658;-87
2022/09/05 12:19:36;;;;;;;1.75;1.20;;;;;;;;;;8150193;29;20091;-87
2022/09/05 12:24:02;;;;;;;2.90;1.10;;;;;;;;;;8140088;29;20066;-88
2022/09/05 12:28:27;;;;;;;1.58;0.90;;;;;;;;;;8146353;29;20555;-87
2022/09/05 12:32:51;;;;;;;0.88;0.82;;;;;;;;;;8136796;29;20120;-88
2022/09/05 12:37:13;;;;;;;2.13;1.20;;;;;;;;;;8139479;29;20168;-87
2022/09/05 12:41:48;;;;;;;0.95;0.73;;;;;;;;;;8141288;29;20514;-87
2022/09/05 12:46:20;;;;;;;29.92;7.35;;;;;;;;;;8148158;29;20119;-87
2022/09/05 12:50:51;;;;;;;2.28;1.17;;;;;;;;;;8156726;29;20559;-88
2022/09/05 12:55:24;;;;;;;3.03;1.20;;;;;;;;;;8145466;29;20099;-88
2022/09/05 12:59:48;;;;;;;1.65;1.20;;;;;;;;;;8145917;29;20107;-87
2022/09/05 13:04:20;;;;;;;1.52;1.00;;;;;;;;;;8141124;29;20059;-88
2022/09/05 13:08:49;;;;;;;4.47;1.98;;;;;;;;;;8143679;29;20050;-88
2022/09/05 13:13:15;;;;;;;2.30;1.40;;;;;;;;;;8162141;29;20412;-87
2022/09/05 13:17:39;;;;;;;3.83;1.10;;;;;;;;;;8148434;29;20054;-87
2022/09/05 13:22:02;;;;;;;4.63;1.40;;;;;;;;;;8157201;29;20103;-87
2022/09/05 13:26:32;;;;;;;10.23;3.33;;;;;;;;;;8142626;29;20102;-87
2022/09/05 13:30:58;;;;;;;5.53;2.25;;;;;;;;;;8150163;29;20143;-87
2022/09/05 13:35:23;;;;;;;2.15;1.33;;;;;;;;;;8145672;29;20583;-87
2022/09/05 13:39:52;;;;;;;7.57;2.53;;;;;;;;;;8149093;29;20120;-88
2022/09/05 13:44:17;;;;;;;2.42;1.40;;;;;;;;;;8151281;29;20048;-87
2022/09/05 13:48:48;;;;;;;8.25;2.92;;;;;;;;;;8155599;29;20047;-89
2022/09/05 13:53:25;;;;;;;5.88;1.90;;;;;;;;;;8142883;29;20110;-88
2022/09/05 13:57:49;;;;;;;1.85;1.20;;;;;;;;;;8155271;29;20062;-85
2022/09/05 14:02:39;;;;;;;5.03;1.45;;;;;;;;;;8150530;29;20111;-87
2022/09/05 14:07:29;;;;;;;1.40;1.30;;;;;;;;;;8153552;29;20079;-86
2022/09/05 14:12:10;;;;;;;11.93;3.35;;;;;;;;;;8127701;29;20068;-85
2022/09/05 14:16:36;;;;;;;10.60;4.97;;;;;;;;;;8133039;29;20151;-86
2022/09/05 14:21:18;;;;;;;2.22;0.88;;;;;;;;;;8140015;29;20125;-89
2022/09/05 14:25:43;;;;;;;2.05;1.33;;;;;;;;;;8150703;29;20094;-87
2022/09/05 14:30:06;;;;;;;1.90;1.10;;;;;;;;;;8146211;29;20059;-87
2022/09/05 14:34:45;;;;;;;10.60;3.20;;;;;;;;;;8149755;29;20052;-89
2022/09/05 14:39:21;;;;;;;2.38;1.58;;;;;;;;;;8149971;29;20060;-88
2022/09/05 14:43:52;;;;;;;1.10;1.00;;;;;;;;;;8152976;29;20063;-88
2022/09/05 14:48:30;;;;;;;1.95;1.52;;;;;;;;;;8141977;29;20052;-87
2022/09/05 14:52:34;;;;;;;2.70;1.80;;;;;;;;;;8148671;29;20075;-87
2022/09/05 14:56:41;;;;;;;1.67;1.30;;;;;;;;;;8156433;29;20061;-88
2022/09/05 15:00:55;;;;;;;2.53;1.60;;;;;;;;;;8149370;29;20050;-88
2022/09/05 15:05:01;;;;;;;6.00;3.53;;;;;;;;;;8152388;29;20056;-88
2022/09/05 15:09:07;;;;;;;2.42;1.00;;;;;;;;;;8154892;29;20052;-88
2022/09/05 15:13:15;;;;;;;2.22;1.20;;;;;;;;;;8153285;29;20056;-88
2022/09/05 15:17:23;;;;;;;2.92;2.20;;;;;;;;;;8154689;29;20843;-87
2022/09/05 15:21:30;;;;;;;4.10;2.47;;;;;;;;;;8159728;29;20054;-87
2022/09/05 15:25:44;;;;;;;6.32;4.13;;;;;;;;;;8146793;29;20055;-87
2022/09/05 15:29:54;;;;;;;1.25;1.10;;;;;;;;;;8140563;29;20115;-86
2022/09/05 15:34:24;;;;;;;1.02;0.88;;;;;;;;;;8137874;29;20080;-87
2022/09/05 15:38:30;;;;;;;4.32;1.60;;;;;;;;;;8136574;29;20060;-87
2022/09/05 15:42:35;;;;;;;3.97;1.60;;;;;;;;;;8141407;29;20072;-87
2022/09/05 15:46:48;;;;;;;2.10;1.17;;;;;;;;;;8157297;29;20595;-88
2022/09/05 15:50:55;;;;;;;3.28;2.13;;;;;;;;;;8145775;29;20119;-88
2022/09/05 15:55:02;;;;;;;4.00;2.33;;;;;;;;;;8145174;29;20048;-88
2022/09/05 15:59:05;;;;;;;12.95;4.05;;;;;;;;;;8136392;29;20052;-88
2022/09/05 16:03:14;;;;;;;1.83;1.63;;;;;;;;;;8137059;29;20063;-88
2022/09/05 16:07:22;;;;;;;19.20;12.43;;;;;;;;;;8146579;29;20047;-88
2022/09/05 16:11:30;;;;;;;10.63;6.38;;;;;;;;;;8152223;29;20043;-87
2022/09/05 16:15:37;;;;;;;24.95;14.02;;;;;;;;;;8152439;29;20048;-86
2022/09/05 16:19:45;;;;;;;17.33;8.55;;;;;;;;;;8150024;29;20095;-88
2022/09/05 16:23:53;;;;;;;32.22;18.58;;;;;;;;;;8154259;29;20078;-88
2022/09/05 16:27:59;;;;;;;26.48;14.13;;;;;;;;;;8158827;29;20385;-87
2022/09/05 16:32:22;;;;;;;48.50;24.92;;;;;;;;;;8152419;29;20515;-88
2022/09/05 16:36:28;;;;;;;73.85;24.55;;;;;;;;;;8155055;29;20770;-88
2022/09/05 16:40:35;;;;;;;25.50;12.73;;;;;;;;;;8151740;29;20055;-87
2022/09/05 16:44:45;;;;;;;26.33;11.00;;;;;;;;;;8148303;29;20808;-87
2022/09/05 16:49:03;;;;;;;19.70;9.07;;;;;;;;;;8140744;29;20060;-89
2022/09/05 16:53:29;;;;;;;17.50;7.60;;;;;;;;;;8134468;29;20127;-88
2022/09/05 16:57:58;;;;;;;12.35;6.00;;;;;;;;;;8154293;29;20138;-88
2022/09/05 17:02:18;;;;;;;13.95;5.93;;;;;;;;;;8142600;29;20464;-87
2022/09/05 17:06:37;;;;;;;13.00;5.35;;;;;;;;;;8153083;29;20444;-88
2022/09/05 17:10:51;;;;;;;15.57;8.77;;;;;;;;;;8136035;29;20488;-88
2022/09/05 17:15:12;;;;;;;39.10;15.35;;;;;;;;;;8128523;29;20051;-88
2022/09/05 17:19:27;;;;;;;9.05;4.03;;;;;;;;;;8135571;29;20623;-86
2022/09/05 17:23:43;;;;;;;9.95;4.82;;;;;;;;;;8139776;29;20072;-87
2022/09/05 17:27:57;;;;;;;9.00;4.72;;;;;;;;;;8147873;29;20092;-87
2022/09/05 17:32:04;;;;;;;3.70;2.40;;;;;;;;;;8139694;29;20051;-87
2022/09/05 17:36:17;;;;;;;3.63;1.70;;;;;;;;;;8144178;29;20119;-87
2022/09/05 17:41:01;;;;;;;2.38;1.60;;;;;;;;;;8146830;29;20051;-87
2022/09/05 17:45:15;;;;;;;2.80;1.65;;;;;;;;;;8150486;29;20048;-88
2022/09/05 17:49:46;;;;;;;4.25;2.50;;;;;;;;;;8142217;29;20044;-86
2022/09/05 17:54:23;;;;;;;5.78;3.58;;;;;;;;;;8144674;29;20543;-88
2022/09/05 18:03:10;;;;;;;5.47;3.20;;;;;;;;;;8143194;29;20051;-88
2022/09/05 18:07:53;;;;;;;5.78;3.20;;;;;;;;;;8143730;29;20134;-88
2022/09/05 18:12:34;;;;;;;3.30;2.20;;;;;;;;;;8135819;29;20056;-88
2022/09/05 18:16:44;;;;;;;5.22;2.40;;;;;;;;;;8141398;29;20044;-87
2022/09/05 18:20:58;;;;;;;4.25;2.45;;;;;;;;;;8144523;29;20062;-87
2022/09/05 18:25:12;;;;;;;4.47;2.00;;;;;;;;;;8153456;29;20429;-87
2022/09/05 18:29:31;;;;;;;2.63;1.67;;;;;;;;;;8147317;29;20503;-86
2022/09/05 18:33:36;;;;;;;4.43;1.70;;;;;;;;;;8146774;29;20480;-87
2022/09/05 18:38:15;;;;;;;2.72;1.65;;;;;;;;;;8109596;29;20060;-87
2022/09/05 18:42:20;;;;;;;2.97;1.73;;;;;;;;;;8119788;29;20055;-87
2022/09/05 18:46:32;;;;;;;7.45;2.10;;;;;;;;;;8135464;29;20048;-87
2022/09/05 18:50:37;;;;;;;2.93;1.90;;;;;;;;;;8116442;29;20055;-87
2022/09/05 18:54:42;;;;;;;3.13;1.90;;;;;;;;;;8111376;29;20076;-86
2022/09/05 18:58:55;;;;;;;1.98;1.67;;;;;;;;;;8123076;29;20072;-87
2022/09/05 19:03:04;;;;;;;2.42;1.90;;;;;;;;;;8113026;29;20052;-87
2022/09/05 19:07:09;;;;;;;4.22;1.80;;;;;;;;;;8111663;29;20051;-86
2022/09/05 19:11:23;;;;;;;7.00;1.88;;;;;;;;;;8112758;29;20060;-86
2022/09/05 19:15:29;;;;;;;3.08;1.80;;;;;;;;;;8110453;29;20048;-86
2022/09/05 19:20:09;;;;;;;2.45;1.60;;;;;;;;;;8126438;29;20578;-86
2022/09/05 19:24:14;;;;;;;3.63;2.05;;;;;;;;;;8120407;29;20088;-87
2022/09/05 19:28:20;;;;;;;2.20;1.83;;;;;;;;;;8121789;29;20055;-86
2022/09/05 19:32:22;;;;;;;11.00;4.40;;;;;;;;;;8117883;29;20048;-86
2022/09/05 19:36:31;;;;;;;5.82;3.10;;;;;;;;;;8131059;29;20496;-86
2022/09/05 19:40:39;;;;;;;5.63;2.80;;;;;;;;;;8148695;29;20120;-85
2022/09/05 19:44:52;;;;;;;10.38;5.80;;;;;;;;;;8153277;29;20047;-86
2022/09/05 19:49:03;;;;;;;15.13;7.10;;;;;;;;;;8135671;29;20496;-86
2022/09/05 19:53:07;;;;;;;19.45;9.27;;;;;;;;;;8151500;29;20051;-86
2022/09/05 19:57:15;;;;;;;9.15;4.40;;;;;;;;;;8156200;29;20495;-87
2022/09/05 20:01:21;;;;;;;5.65;2.88;;;;;;;;;;8143180;29;20052;-88
2022/09/05 20:05:24;;;;;;;8.75;3.50;;;;;;;;;;8155451;29;20051;-87
2022/09/05 20:09:28;;;;;;;9.35;4.45;;;;;;;;;;8158798;29;20386;-85
2022/09/05 20:13:31;;;;;;;8.60;3.65;;;;;;;;;;8137781;29;20047;-85
2022/09/05 20:17:36;;;;;;;6.70;3.50;;;;;;;;;;8137419;29;20048;-86
2022/09/05 20:21:39;;;;;;;5.70;2.65;;;;;;;;;;8125267;29;20488;-85
2022/09/05 20:25:47;;;;;;;5.15;2.47;;;;;;;;;;8136618;29;20052;-86
2022/09/05 20:29:54;;;;;;;8.32;4.30;;;;;;;;;;8147453;29;20050;-85
2022/09/05 20:33:59;;;;;;;5.65;3.03;;;;;;;;;;8151690;29;20162;-87
2022/09/05 20:38:05;;;;;;;7.15;3.42;;;;;;;;;;8149461;29;20059;-87
2022/09/05 20:42:10;;;;;;;10.30;4.22;;;;;;;;;;8144792;29;20059;-87
2022/09/05 20:46:13;;;;;;;13.73;5.72;;;;;;;;;;8139702;29;20050;-86
2022/09/05 20:50:25;;;;;;;6.90;3.45;;;;;;;;;;8148144;29;20066;-87
2022/09/05 20:54:28;;;;;;;7.50;3.53;;;;;;;;;;8149363;29;20055;-86
2022/09/05 20:58:34;;;;;;;8.75;3.80;;;;;;;;;;8146382;29;20416;-85
2022/09/05 21:02:36;;;;;;;7.72;3.70;;;;;;;;;;8150100;29;20048;-86
2022/09/05 21:06:40;;;;;;;5.88;2.90;;;;;;;;;;8148159;29;20040;-87
2022/09/05 21:10:50;;;;;;;5.65;3.08;;;;;;;;;;8138836;29;20096;-86
2022/09/05 21:15:22;;;;;;;4.15;2.45;;;;;;;;;;8143734;29;20044;-87
2022/09/05 21:19:28;;;;;;;5.45;2.83;;;;;;;;;;8134513;29;20107;-85
2022/09/05 21:23:33;;;;;;;5.32;2.78;;;;;;;;;;8146305;29;20412;-86
2022/09/05 21:27:35;;;;;;;5.18;2.53;;;;;;;;;;8144878;29;20055;-85
2022/09/05 21:31:43;;;;;;;5.43;2.40;;;;;;;;;;8152832;29;20047;-85
2022/09/05 21:35:48;;;;;;;6.50;3.05;;;;;;;;;;8142448;29;20492;-85
2022/09/05 21:39:54;;;;;;;9.38;2.97;;;;;;;;;;8138864;29;20048;-87
2022/09/05 21:43:56;;;;;;;4.53;2.40;;;;;;;;;;8145793;29;20052;-86
2022/09/05 21:48:01;;;;;;;5.90;2.60;;;;;;;;;;8149696;29;20052;-88
2022/09/05 21:52:04;;;;;;;5.90;3.15;;;;;;;;;;8151504;29;20052;-87
2022/09/05 21:56:11;;;;;;;4.60;2.58;;;;;;;;;;8151982;29;20059;-86
2022/09/05 22:00:15;;;;;;;5.10;2.90;;;;;;;;;;8142114;29;20052;-86
2022/09/05 22:04:20;;;;;;;5.05;2.75;;;;;;;;;;8142446;29;20044;-86
2022/09/05 22:08:22;;;;;;;4.57;2.38;;;;;;;;;;8158526;29;20496;-86
2022/09/05 22:12:29;;;;;;;5.50;2.90;;;;;;;;;;8145741;29;20040;-86
2022/09/05 22:16:32;;;;;;;5.43;2.42;;;;;;;;;;8150021;29;20048;-86
2022/09/05 22:20:38;;;;;;;7.15;2.78;;;;;;;;;;8139613;29;20070;-87
2022/09/05 22:24:42;;;;;;;5.57;2.97;;;;;;;;;;8150328;29;20114;-86
2022/09/05 22:28:47;;;;;;;4.75;2.53;;;;;;;;;;8144065;29;20058;-87
2022/09/05 22:32:50;;;;;;;5.60;2.80;;;;;;;;;;8142375;29;20062;-87
2022/09/05 22:36:55;;;;;;;5.00;2.70;;;;;;;;;;8145228;29;20420;-87
2022/09/05 22:40:57;;;;;;;6.30;2.92;;;;;;;;;;8145687;29;20060;-85
2022/09/05 22:45:00;;;;;;;8.10;2.95;;;;;;;;;;8141339;29;20424;-87
2022/09/05 22:49:02;;;;;;;7.05;3.03;;;;;;;;;;8147179;29;20760;-86
2022/09/05 22:53:08;;;;;;;5.95;2.78;;;;;;;;;;8141907;29;20059;-87
2022/09/05 22:57:10;;;;;;;5.68;2.65;;;;;;;;;;8137961;29;20071;-85
2022/09/05 23:01:13;;;;;;;5.13;2.65;;;;;;;;;;8140546;29;20055;-85
2022/09/05 23:05:16;;;;;;;5.35;2.63;;;;;;;;;;8141026;29;20506;-85
2022/09/05 23:09:20;;;;;;;6.53;3.30;;;;;;;;;;8127430;29;20052;-85
2022/09/05 23:13:23;;;;;;;6.55;3.10;;;;;;;;;;8141732;29;20117;-87
2022/09/05 23:17:26;;;;;;;5.25;2.72;;;;;;;;;;8158953;29;20092;-87
2022/09/05 23:21:28;;;;;;;5.47;3.20;;;;;;;;;;8135892;29;20497;-87
2022/09/05 23:25:33;;;;;;;8.15;2.88;;;;;;;;;;8137517;29;20135;-87
2022/09/05 23:29:36;;;;;;;6.45;3.28;;;;;;;;;;8137598;29;20055;-86
2022/09/05 23:37:55;;;;;;;7.68;3.45;;;;;;;;;;8045227;29;20056;-86
2022/09/05 23:41:59;;;;;;;7.43;3.80;;;;;;;;;;8136197;29;20501;-85
2022/09/05 23:46:03;;;;;;;7.35;4.28;;;;;;;;;;8138893;29;20072;-86
2022/09/05 23:50:06;;;;;;;8.13;3.75;;;;;;;;;;8144886;29;20147;-85
2022/09/05 23:54:09;;;;;;;6.75;3.88;;;;;;;;;;8137701;29;20130;-87
2022/09/05 23:58:13;;;;;;;8.25;4.53;;;;;;;;;;8144102;29;20745;-87
